sensor_id;sensor_type;location;lat;lon;timestamp;pressure;altitude;pressure_sealevel;temperature;humidity
13241;BME280;6687;47.790;7.322;2023-02-22T06:12:12;98753.91;;;4.56;93.78
13241;BME280;6687;47.790;7.322;2023-02-22T06:14:41;98767.63;;;4.58;93.16
13241;BME280;6687;47.790;7.322;2023-02-22T06:17:10;98762.53;;;4.60;92.88
13241;BME280;6687;47.790;7.322;2023-02-22T06:19:37;98766.81;;;4.61;92.44
13241;BME280;6687;47.790;7.322;2023-02-22T06:22:06;98762.59;;;4.62;92.36
13241;BME280;6687;47.790;7.322;2023-02-22T06:24:33;98762.53;;;4.60;92.28
13241;BME280;6687;47.790;7.322;2023-02-22T06:27:00;98765.97;;;4.61;91.89
13241;BME280;6687;47.790;7.322;2023-02-22T06:29:29;98768.63;;;4.64;91.83
13241;BME280;6687;47.790;7.322;2023-02-22T06:31:55;98762.63;;;4.65;92.00
13241;BME280;6687;47.790;7.322;2023-02-22T06:34:22;98763.56;;;4.68;91.44
13241;BME280;6687;47.790;7.322;2023-02-22T06:36:49;98765.63;;;4.85;90.99
13241;BME280;6687;47.790;7.322;2023-02-22T06:39:16;98766.50;;;4.85;90.52
13241;BME280;6687;47.790;7.322;2023-02-22T06:41:45;98763.91;;;4.84;90.48
13241;BME280;6687;47.790;7.322;2023-02-22T06:44:13;98766.53;;;4.87;90.44
13241;BME280;6687;47.790;7.322;2023-02-22T06:46:47;98758.78;;;4.84;90.99
13241;BME280;6687;47.790;7.322;2023-02-22T06:49:15;98764.78;;;4.84;90.70
13241;BME280;6687;47.790;7.322;2023-02-22T06:51:42;98763.03;;;4.83;90.72
13241;BME280;6687;47.790;7.322;2023-02-22T06:54:09;98765.72;;;4.88;90.78
13241;BME280;6687;47.790;7.322;2023-02-22T06:56:36;98776.88;;;4.91;90.64
13241;BME280;6687;47.790;7.322;2023-02-22T06:59:03;98776.16;;;4.97;90.30
13241;BME280;6687;47.790;7.322;2023-02-22T07:01:29;98779.56;;;4.96;90.43
13241;BME280;6687;47.790;7.322;2023-02-22T07:03:58;98776.28;;;5.02;90.09
13241;BME280;6687;47.790;7.322;2023-02-22T07:06:25;98775.50;;;5.06;89.72
13241;BME280;6687;47.790;7.322;2023-02-22T07:08:52;98775.59;;;5.10;89.61
13241;BME280;6687;47.790;7.322;2023-02-22T07:11:19;98775.63;;;5.12;89.62
13241;BME280;6687;47.790;7.322;2023-02-22T07:13:45;98786.72;;;5.09;90.11
13241;BME280;6687;47.790;7.322;2023-02-22T07:16:12;98785.00;;;5.10;90.58
13241;BME280;6687;47.790;7.322;2023-02-22T07:18:39;98777.41;;;5.16;89.73
13241;BME280;6687;47.790;7.322;2023-02-22T07:21:07;98778.50;;;5.29;88.69
13241;BME280;6687;47.790;7.322;2023-02-22T07:23:35;98787.94;;;5.28;89.04
13241;BME280;6687;47.790;7.322;2023-02-22T07:26:03;98785.44;;;5.33;88.57
13241;BME280;6687;47.790;7.322;2023-02-22T07:28:30;98782.09;;;5.37;87.99
13241;BME280;6687;47.790;7.322;2023-02-22T07:30:57;98789.97;;;5.45;87.53
13241;BME280;6687;47.790;7.322;2023-02-22T07:33:25;98781.84;;;5.67;85.28
13241;BME280;6687;47.790;7.322;2023-02-22T07:35:52;98778.63;;;5.81;84.20
13241;BME280;6687;47.790;7.322;2023-02-22T07:38:20;98775.28;;;5.83;83.77
13241;BME280;6687;47.790;7.322;2023-02-22T07:40:47;98771.81;;;5.83;83.46
13241;BME280;6687;47.790;7.322;2023-02-22T07:43:16;98771.91;;;5.89;83.37
13241;BME280;6687;47.790;7.322;2023-02-22T07:45:44;98779.84;;;5.98;83.32
13241;BME280;6687;47.790;7.322;2023-02-22T07:48:12;98773.97;;;6.05;82.92
13241;BME280;6687;47.790;7.322;2023-02-22T07:50:39;98775.00;;;6.16;81.98
13241;BME280;6687;47.790;7.322;2023-02-22T07:53:10;98773.63;;;6.37;81.09
13241;BME280;6687;47.790;7.322;2023-02-22T07:55:38;98774.53;;;6.42;80.60
13241;BME280;6687;47.790;7.322;2023-02-22T07:58:07;98779.09;;;6.60;79.54
13241;BME280;6687;47.790;7.322;2023-02-22T08:00:35;98778.50;;;6.78;78.79
13241;BME280;6687;47.790;7.322;2023-02-22T08:03:05;98777.50;;;6.68;79.24
13241;BME280;6687;47.790;7.322;2023-02-22T08:05:34;98771.72;;;6.83;78.60
13241;BME280;6687;47.790;7.322;2023-02-22T08:08:01;98771.78;;;6.89;78.42
13241;BME280;6687;47.790;7.322;2023-02-22T08:10:30;98768.38;;;6.90;78.56
13241;BME280;6687;47.790;7.322;2023-02-22T08:12:59;98765.09;;;7.04;77.94
13241;BME280;6687;47.790;7.322;2023-02-22T08:15:28;98769.50;;;7.11;77.79
13241;BME280;6687;47.790;7.322;2023-02-22T08:17:56;98765.25;;;7.16;77.24
13241;BME280;6687;47.790;7.322;2023-02-22T08:20:24;98762.78;;;7.22;77.19
13241;BME280;6687;47.790;7.322;2023-02-22T08:22:51;98760.25;;;7.27;77.67
13241;BME280;6687;47.790;7.322;2023-02-22T08:25:19;98761.19;;;7.35;77.97
13241;BME280;6687;47.790;7.322;2023-02-22T08:27:46;98761.31;;;7.46;77.05
13241;BME280;6687;47.790;7.322;2023-02-22T08:30:18;98755.31;;;7.47;77.19
13241;BME280;6687;47.790;7.322;2023-02-22T08:32:46;98767.41;;;7.54;77.42
13241;BME280;6687;47.790;7.322;2023-02-22T08:35:13;98763.22;;;7.64;76.90
13241;BME280;6687;47.790;7.322;2023-02-22T08:37:41;98760.88;;;7.87;76.11
13241;BME280;6687;47.790;7.322;2023-02-22T08:40:09;98759.13;;;7.83;76.35
13241;BME280;6687;47.790;7.322;2023-02-22T08:42:36;98760.00;;;7.85;77.11
13241;BME280;6687;47.790;7.322;2023-02-22T08:45:03;98765.25;;;7.94;76.07
13241;BME280;6687;47.790;7.322;2023-02-22T08:47:31;98759.28;;;8.01;76.29
13241;BME280;6687;47.790;7.322;2023-02-22T08:49:58;98762.78;;;8.08;76.17
13241;BME280;6687;47.790;7.322;2023-02-22T08:52:25;98761.13;;;8.17;76.06
13241;BME280;6687;47.790;7.322;2023-02-22T08:54:52;98760.38;;;8.28;75.24
13241;BME280;6687;47.790;7.322;2023-02-22T08:57:20;98759.66;;;8.47;74.93
13241;BME280;6687;47.790;7.322;2023-02-22T08:59:46;98758.03;;;8.55;74.68
13241;BME280;6687;47.790;7.322;2023-02-22T09:02:15;98762.34;;;8.63;75.07
13241;BME280;6687;47.790;7.322;2023-02-22T09:04:43;98753.84;;;8.81;75.54
13241;BME280;6687;47.790;7.322;2023-02-22T09:07:10;98758.22;;;8.89;75.14
13241;BME280;6687;47.790;7.322;2023-02-22T09:09:37;98753.94;;;9.01;74.74
13241;BME280;6687;47.790;7.322;2023-02-22T09:12:04;98750.56;;;9.14;75.55
13241;BME280;6687;47.790;7.322;2023-02-22T09:14:31;98756.66;;;9.25;74.64
13241;BME280;6687;47.790;7.322;2023-02-22T09:16:58;98752.41;;;9.40;75.29
13241;BME280;6687;47.790;7.322;2023-02-22T09:19:25;98748.13;;;9.54;75.31
13241;BME280;6687;47.790;7.322;2023-02-22T09:21:54;98744.69;;;9.61;74.24
13241;BME280;6687;47.790;7.322;2023-02-22T09:24:20;98745.56;;;9.69;74.25
13241;BME280;6687;47.790;7.322;2023-02-22T09:26:48;98749.06;;;9.93;75.95
13241;BME280;6687;47.790;7.322;2023-02-22T09:29:18;98743.03;;;9.97;74.02
13241;BME280;6687;47.790;7.322;2023-02-22T09:31:48;98741.28;;;10.11;74.04
13241;BME280;6687;47.790;7.322;2023-02-22T09:34:15;98745.63;;;10.25;74.31
13241;BME280;6687;47.790;7.322;2023-02-22T09:36:44;98744.75;;;10.29;73.29
13241;BME280;6687;47.790;7.322;2023-02-22T09:39:14;98741.28;;;10.42;74.43
13241;BME280;6687;47.790;7.322;2023-02-22T09:41:49;98742.16;;;10.53;73.82
13241;BME280;6687;47.790;7.322;2023-02-22T09:44:21;98742.97;;;10.74;74.26
13241;BME280;6687;47.790;7.322;2023-02-22T09:46:50;98738.66;;;10.78;73.89
13241;BME280;6687;47.790;7.322;2023-02-22T09:49:22;98739.50;;;10.89;74.01
13241;BME280;6687;47.790;7.322;2023-02-22T09:51:56;98740.34;;;10.92;74.34
13241;BME280;6687;47.790;7.322;2023-02-22T09:54:28;98736.03;;;10.94;73.84
13241;BME280;6687;47.790;7.322;2023-02-22T09:57:02;98735.94;;;11.16;73.86
13241;BME280;6687;47.790;7.322;2023-02-22T09:59:32;98727.25;;;11.23;73.22
13241;BME280;6687;47.790;7.322;2023-02-22T10:02:09;98732.41;;;11.29;72.26
13241;BME280;6687;47.790;7.322;2023-02-22T10:04:41;98733.25;;;11.36;72.63
13241;BME280;6687;47.790;7.322;2023-02-22T10:07:15;98735.78;;;11.50;72.70
13241;BME280;6687;47.790;7.322;2023-02-22T10:09:46;98746.03;;;11.67;72.39
13241;BME280;6687;47.790;7.322;2023-02-22T10:12:23;98735.75;;;11.53;71.76
13241;BME280;6687;47.790;7.322;2023-02-22T10:15:11;98740.78;;;11.81;72.46
13241;BME280;6687;47.790;7.322;2023-02-22T10:17:50;98739.88;;;11.86;71.13
13241;BME280;6687;47.790;7.322;2023-02-22T10:20:34;98742.47;;;11.88;72.00
13241;BME280;6687;47.790;7.322;2023-02-22T10:23:10;98738.00;;;12.10;71.59
13241;BME280;6687;47.790;7.322;2023-02-22T10:25:44;98731.13;;;12.06;70.70
13241;BME280;6687;47.790;7.322;2023-02-22T10:28:17;98740.50;;;12.19;70.71
13241;BME280;6687;47.790;7.322;2023-02-22T10:30:48;98740.44;;;12.30;70.88
13241;BME280;6687;47.790;7.322;2023-02-22T10:33:20;98730.84;;;12.37;71.06
13241;BME280;6687;47.790;7.322;2023-02-22T10:35:50;98733.38;;;12.41;70.26
13241;BME280;6687;47.790;7.322;2023-02-22T10:38:19;98734.16;;;12.52;70.19
13241;BME280;6687;47.790;7.322;2023-02-22T10:40:52;98735.84;;;12.58;70.01
13241;BME280;6687;47.790;7.322;2023-02-22T10:43:20;98727.13;;;12.64;69.78
13241;BME280;6687;47.790;7.322;2023-02-22T10:45:50;98725.34;;;12.67;68.90
13241;BME280;6687;47.790;7.322;2023-02-22T10:48:21;98724.31;;;12.82;69.69
13241;BME280;6687;47.790;7.322;2023-02-22T10:50:51;98719.94;;;12.86;68.57
13241;BME280;6687;47.790;7.322;2023-02-22T10:53:20;98726.09;;;12.77;68.67
13241;BME280;6687;47.790;7.322;2023-02-22T10:56:08;98720.72;;;12.92;69.07
13241;BME280;6687;47.790;7.322;2023-02-22T10:58:42;98714.56;;;13.01;68.31
13241;BME280;6687;47.790;7.322;2023-02-22T11:01:24;98722.34;;;13.03;68.06
13241;BME280;6687;47.790;7.322;2023-02-22T11:04:00;98717.97;;;13.05;68.22
13241;BME280;6687;47.790;7.322;2023-02-22T11:06:30;98715.19;;;13.20;67.38
13241;BME280;6687;47.790;7.322;2023-02-22T11:09:06;98719.31;;;13.40;67.28
13241;BME280;6687;47.790;7.322;2023-02-22T11:11:37;98714.19;;;13.33;67.41
13241;BME280;6687;47.790;7.322;2023-02-22T11:14:04;98713.22;;;13.41;67.22
13241;BME280;6687;47.790;7.322;2023-02-22T11:16:36;98721.75;;;13.52;66.94
13241;BME280;6687;47.790;7.322;2023-02-22T11:19:11;98705.25;;;13.53;66.68
13241;BME280;6687;47.790;7.322;2023-02-22T11:21:42;98714.88;;;13.45;66.50
13241;BME280;6687;47.790;7.322;2023-02-22T11:24:11;98714.88;;;13.45;66.26
13241;BME280;6687;47.790;7.322;2023-02-22T11:26:42;98708.53;;;13.64;66.61
13241;BME280;6687;47.790;7.322;2023-02-22T11:29:16;98703.22;;;13.73;66.74
13241;BME280;6687;47.790;7.322;2023-02-22T11:31:45;98704.00;;;13.79;66.02
13241;BME280;6687;47.790;7.322;2023-02-22T11:34:32;98708.22;;;13.87;64.42
13241;BME280;6687;47.790;7.322;2023-02-22T11:37:26;98710.38;;;14.13;64.69
13241;BME280;6687;47.790;7.322;2023-02-22T11:40:15;98703.75;;;13.94;63.34
13241;BME280;6687;47.790;7.322;2023-02-22T11:42:45;98708.47;;;14.25;64.25
13241;BME280;6687;47.790;7.322;2023-02-22T11:45:15;98699.66;;;14.32;63.58
13241;BME280;6687;47.790;7.322;2023-02-22T11:47:50;98708.13;;;14.43;63.13
13241;BME280;6687;47.790;7.322;2023-02-22T11:50:28;98704.25;;;14.16;64.21
13241;BME280;6687;47.790;7.322;2023-02-22T11:53:10;98701.53;;;14.24;62.24
13241;BME280;6687;47.790;7.322;2023-02-22T11:55:46;98701.88;;;14.53;63.32
13241;BME280;6687;47.790;7.322;2023-02-22T11:58:29;98693.13;;;14.58;62.48
13241;BME280;6687;47.790;7.322;2023-02-22T12:01:04;98694.28;;;14.41;62.90
13241;BME280;6687;47.790;7.322;2023-02-22T12:03:49;98693.72;;;14.72;63.60
13241;BME280;6687;47.790;7.322;2023-02-22T12:06:30;98697.59;;;14.49;63.75
13241;BME280;6687;47.790;7.322;2023-02-22T12:09:07;98696.59;;;14.58;62.90
13241;BME280;6687;47.790;7.322;2023-02-22T12:11:43;98689.41;;;14.71;62.30
13241;BME280;6687;47.790;7.322;2023-02-22T12:14:23;98685.97;;;14.70;62.61
13241;BME280;6687;47.790;7.322;2023-02-22T12:19:47;98689.50;;;15.10;61.81
13241;BME280;6687;47.790;7.322;2023-02-22T12:22:18;98691.34;;;15.05;61.82
13241;BME280;6687;47.790;7.322;2023-02-22T12:24:50;98694.09;;;14.97;62.22
13241;BME280;6687;47.790;7.322;2023-02-22T12:27:23;98693.44;;;14.87;63.64
13241;BME280;6687;47.790;7.322;2023-02-22T12:29:55;98690.22;;;15.18;62.32
13241;BME280;6687;47.790;7.322;2023-02-22T12:32:32;98692.19;;;15.05;62.05
13241;BME280;6687;47.790;7.322;2023-02-22T12:35:10;98693.13;;;15.03;61.21
13241;BME280;6687;47.790;7.322;2023-02-22T12:37:47;98696.88;;;15.31;61.28
13241;BME280;6687;47.790;7.322;2023-02-22T12:40:20;98696.00;;;15.32;60.90
13241;BME280;6687;47.790;7.322;2023-02-22T12:42:56;98698.59;;;15.32;61.50
13241;BME280;6687;47.790;7.322;2023-02-22T12:45:40;98698.56;;;15.34;62.45
13241;BME280;6687;47.790;7.322;2023-02-22T12:48:24;98699.59;;;15.25;62.00
13241;BME280;6687;47.790;7.322;2023-02-22T12:50:54;98704.56;;;15.38;61.84
13241;BME280;6687;47.790;7.322;2023-02-22T12:53:25;98697.50;;;15.43;61.84
13241;BME280;6687;47.790;7.322;2023-02-22T12:55:57;98694.13;;;15.38;62.16
13241;BME280;6687;47.790;7.322;2023-02-22T12:58:29;98695.75;;;15.42;61.71
13241;BME280;6687;47.790;7.322;2023-02-22T13:01:02;98694.56;;;15.58;61.24
13241;BME280;6687;47.790;7.322;2023-02-22T13:03:35;98684.13;;;15.57;61.66
13241;BME280;6687;47.790;7.322;2023-02-22T13:06:20;98690.22;;;15.57;61.62
13241;BME280;6687;47.790;7.322;2023-02-22T13:09:00;98688.03;;;15.78;61.72
13241;BME280;6687;47.790;7.322;2023-02-22T13:11:37;98686.09;;;15.47;62.24
13241;BME280;6687;47.790;7.322;2023-02-22T13:14:15;98679.72;;;15.60;61.46
13241;BME280;6687;47.790;7.322;2023-02-22T13:16:52;98685.91;;;15.56;61.56
13241;BME280;6687;47.790;7.322;2023-02-22T13:19:29;98677.81;;;15.65;61.33
13241;BME280;6687;47.790;7.322;2023-02-22T13:22:03;98682.50;;;15.51;61.20
13241;BME280;6687;47.790;7.322;2023-02-22T13:24:39;98682.06;;;15.73;60.85
13241;BME280;6687;47.790;7.322;2023-02-22T13:27:12;98688.41;;;15.59;61.66
13241;BME280;6687;47.790;7.322;2023-02-22T13:29:45;98684.94;;;15.60;61.20
13241;BME280;6687;47.790;7.322;2023-02-22T13:32:25;98685.59;;;15.68;61.02
13241;BME280;6687;47.790;7.322;2023-02-22T13:35:27;98686.56;;;15.64;61.18
13241;BME280;6687;47.790;7.322;2023-02-22T13:38:32;98685.59;;;15.68;61.86
13241;BME280;6687;47.790;7.322;2023-02-22T13:41:18;98684.91;;;15.62;61.68
13241;BME280;6687;47.790;7.322;2023-02-22T13:44:00;98689.91;;;15.69;61.39
13241;BME280;6687;47.790;7.322;2023-02-22T13:46:46;98684.56;;;15.77;61.72
13241;BME280;6687;47.790;7.322;2023-02-22T13:49:33;98690.22;;;15.57;61.44
13241;BME280;6687;47.790;7.322;2023-02-22T13:52:07;98689.91;;;15.73;61.61
13241;BME280;6687;47.790;7.322;2023-02-22T13:54:41;98685.66;;;15.65;61.16
13241;BME280;6687;47.790;7.322;2023-02-22T13:57:20;98686.59;;;15.63;61.94
13241;BME280;6687;47.790;7.322;2023-02-22T13:59:47;98691.94;;;15.58;61.84
13241;BME280;6687;47.790;7.322;2023-02-22T14:02:58;98691.34;;;15.84;62.08
13241;BME280;6687;47.790;7.322;2023-02-22T14:05:50;98690.00;;;15.66;60.81
13241;BME280;6687;47.790;7.322;2023-02-22T14:08:40;98689.75;;;15.79;62.73
13241;BME280;6687;47.790;7.322;2023-02-22T14:14:21;98684.63;;;15.76;63.31
13241;BME280;6687;47.790;7.322;2023-02-22T14:20:22;98683.94;;;15.66;62.56
13241;BME280;6687;47.790;7.322;2023-02-22T14:22:56;98681.19;;;15.70;62.40
13241;BME280;6687;47.790;7.322;2023-02-22T14:25:35;98688.66;;;15.87;62.21
13241;BME280;6687;47.790;7.322;2023-02-22T14:28:05;98682.91;;;15.71;63.07
13241;BME280;6687;47.790;7.322;2023-02-22T14:30:35;98683.28;;;15.56;63.14
13241;BME280;6687;47.790;7.322;2023-02-22T14:33:03;98687.06;;;15.82;62.50
13241;BME280;6687;47.790;7.322;2023-02-22T14:35:51;98690.38;;;15.88;62.94
13241;BME280;6687;47.790;7.322;2023-02-22T14:38:18;98686.97;;;15.86;62.63
13241;BME280;6687;47.790;7.322;2023-02-22T14:40:47;98690.41;;;15.87;62.68
13241;BME280;6687;47.790;7.322;2023-02-22T14:43:18;98679.72;;;15.60;61.34
13241;BME280;6687;47.790;7.322;2023-02-22T14:45:51;98686.47;;;15.67;61.02
13241;BME280;6687;47.790;7.322;2023-02-22T14:48:22;98685.38;;;15.79;61.16
13241;BME280;6687;47.790;7.322;2023-02-22T14:50:56;98692.50;;;15.71;62.76
13241;BME280;6687;47.790;7.322;2023-02-22T14:53:26;98698.41;;;15.81;61.63
13241;BME280;6687;47.790;7.322;2023-02-22T14:56:02;98693.31;;;15.75;60.46
13241;BME280;6687;47.790;7.322;2023-02-22T14:58:35;98691.34;;;15.86;61.20
13241;BME280;6687;47.790;7.322;2023-02-22T15:01:21;98694.31;;;15.67;63.01
13241;BME280;6687;47.790;7.322;2023-02-22T15:03:47;98696.88;;;15.31;60.72
13241;BME280;6687;47.790;7.322;2023-02-22T15:06:18;98693.34;;;15.34;60.91
13241;BME280;6687;47.790;7.322;2023-02-22T15:08:46;98690.94;;;15.23;60.91
13241;BME280;6687;47.790;7.322;2023-02-22T15:11:24;98699.09;;;15.50;62.32
13241;BME280;6687;47.790;7.322;2023-02-22T15:13:55;98696.94;;;15.28;61.40
13241;BME280;6687;47.790;7.322;2023-02-22T15:16:25;98694.53;;;15.19;60.86
13241;BME280;6687;47.790;7.322;2023-02-22T15:18:54;98692.88;;;15.15;60.26
13241;BME280;6687;47.790;7.322;2023-02-22T15:21:26;98701.63;;;15.13;60.61
13241;BME280;6687;47.790;7.322;2023-02-22T15:23:55;98706.72;;;15.19;60.52
13241;BME280;6687;47.790;7.322;2023-02-22T15:26:26;98701.34;;;14.83;60.83
13241;BME280;6687;47.790;7.322;2023-02-22T15:28:56;98700.00;;;15.07;60.75
13241;BME280;6687;47.790;7.322;2023-02-22T15:31:28;98707.84;;;15.07;61.24
13241;BME280;6687;47.790;7.322;2023-02-22T15:33:55;98700.72;;;14.70;61.35
13241;BME280;6687;47.790;7.322;2023-02-22T15:36:27;98702.28;;;14.80;61.76
13241;BME280;6687;47.790;7.322;2023-02-22T15:38:55;98699.69;;;14.79;61.53
13241;BME280;6687;47.790;7.322;2023-02-22T15:41:26;98698.38;;;14.56;62.09
13241;BME280;6687;47.790;7.322;2023-02-22T15:43:57;98697.22;;;14.73;62.09
13241;BME280;6687;47.790;7.322;2023-02-22T15:46:25;98693.13;;;14.59;62.25
13241;BME280;6687;47.790;7.322;2023-02-22T15:49:17;98708.03;;;14.49;62.65
13241;BME280;6687;47.790;7.322;2023-02-22T15:51:51;98718.09;;;14.71;62.36
13241;BME280;6687;47.790;7.322;2023-02-22T15:54:26;98704.47;;;14.53;64.07
13241;BME280;6687;47.790;7.322;2023-02-22T15:56:53;98704.81;;;14.35;63.87
13241;BME280;6687;47.790;7.322;2023-02-22T15:59:22;98709.00;;;14.44;63.82
13241;BME280;6687;47.790;7.322;2023-02-22T16:01:55;98709.69;;;14.53;64.97
13241;BME280;6687;47.790;7.322;2023-02-22T16:04:24;98712.44;;;14.46;67.81
13241;BME280;6687;47.790;7.322;2023-02-22T16:07:01;98704.47;;;14.02;71.30
13241;BME280;6687;47.790;7.322;2023-02-22T16:09:29;98711.38;;;14.06;71.48
13241;BME280;6687;47.790;7.322;2023-02-22T16:12:06;98703.84;;;13.88;72.70
13241;BME280;6687;47.790;7.322;2023-02-22T16:14:40;98711.06;;;13.70;74.25
13241;BME280;6687;47.790;7.322;2023-02-22T16:17:24;98706.56;;;13.80;74.26
13241;BME280;6687;47.790;7.322;2023-02-22T16:19:55;98706.88;;;13.59;75.04
13241;BME280;6687;47.790;7.322;2023-02-22T16:22:27;98709.34;;;13.71;75.09
13241;BME280;6687;47.790;7.322;2023-02-22T16:25:12;98719.97;;;13.54;75.68
13241;BME280;6687;47.790;7.322;2023-02-22T16:27:41;98707.94;;;13.47;76.38
13241;BME280;6687;47.790;7.322;2023-02-22T16:30:22;98706.31;;;13.40;76.28
13241;BME280;6687;47.790;7.322;2023-02-22T16:32:50;98715.38;;;13.05;77.48
13241;BME280;6687;47.790;7.322;2023-02-22T16:35:17;98711.66;;;13.24;77.29
13241;BME280;6687;47.790;7.322;2023-02-22T16:37:47;98715.34;;;13.08;77.27
13241;BME280;6687;47.790;7.322;2023-02-22T16:40:20;98714.78;;;13.52;75.79
13241;BME280;6687;47.790;7.322;2023-02-22T16:42:47;98707.38;;;13.22;76.60
13241;BME280;6687;47.790;7.322;2023-02-22T16:45:16;98712.41;;;13.37;76.17
13241;BME280;6687;47.790;7.322;2023-02-22T16:47:43;98712.69;;;13.12;76.68
13241;BME280;6687;47.790;7.322;2023-02-22T16:50:10;98719.72;;;13.03;77.62
13241;BME280;6687;47.790;7.322;2023-02-22T16:52:39;98718.81;;;13.07;77.70
13241;BME280;6687;47.790;7.322;2023-02-22T16:55:11;98712.84;;;13.00;76.91
13241;BME280;6687;47.790;7.322;2023-02-22T16:57:39;98714.75;;;12.83;79.16
13241;BME280;6687;47.790;7.322;2023-02-22T17:00:10;98709.13;;;13.20;77.02
13241;BME280;6687;47.790;7.322;2023-02-22T17:02:39;98717.28;;;12.92;77.28
13241;BME280;6687;47.790;7.322;2023-02-22T17:05:08;98718.97;;;12.94;78.20
13241;BME280;6687;47.790;7.322;2023-02-22T17:07:38;98712.84;;;12.99;77.82
13241;BME280;6687;47.790;7.322;2023-02-22T17:10:05;98711.84;;;13.12;76.85
13241;BME280;6687;47.790;7.322;2023-02-22T17:12:34;98703.25;;;13.04;76.97
13241;BME280;6687;47.790;7.322;2023-02-22T17:15:01;98711.94;;;13.03;77.59
13241;BME280;6687;47.790;7.322;2023-02-22T17:17:28;98713.63;;;13.07;76.65
13241;BME280;6687;47.790;7.322;2023-02-22T17:19:57;98713.81;;;12.91;77.35
13241;BME280;6687;47.790;7.322;2023-02-22T17:22:24;98715.50;;;12.97;77.07
13241;BME280;6687;47.790;7.322;2023-02-22T17:24:51;98718.19;;;12.89;78.02
13241;BME280;6687;47.790;7.322;2023-02-22T17:27:18;98720.88;;;12.77;78.50
13241;BME280;6687;47.790;7.322;2023-02-22T17:29:46;98715.59;;;12.88;77.49
13241;BME280;6687;47.790;7.322;2023-02-22T17:32:14;98724.25;;;12.88;77.47
13241;BME280;6687;47.790;7.322;2023-02-22T17:34:40;98721.66;;;12.87;77.27
13241;BME280;6687;47.790;7.322;2023-02-22T17:37:07;98724.34;;;12.79;77.89
13241;BME280;6687;47.790;7.322;2023-02-22T17:39:34;98727.66;;;12.93;77.03
13241;BME280;6687;47.790;7.322;2023-02-22T17:42:01;98726.22;;;12.65;77.95
13241;BME280;6687;47.790;7.322;2023-02-22T17:44:27;98726.22;;;12.65;78.29
13241;BME280;6687;47.790;7.322;2023-02-22T17:46:55;98729.66;;;12.70;77.96
13241;BME280;6687;47.790;7.322;2023-02-22T17:49:22;98729.66;;;12.70;78.59
13241;BME280;6687;47.790;7.322;2023-02-22T17:51:49;98731.59;;;12.49;79.92
13241;BME280;6687;47.790;7.322;2023-02-22T17:54:17;98732.25;;;12.68;78.64
13241;BME280;6687;47.790;7.322;2023-02-22T17:56:44;98733.97;;;12.71;78.49
13241;BME280;6687;47.790;7.322;2023-02-22T17:59:11;98736.56;;;12.71;78.23
13241;BME280;6687;47.790;7.322;2023-02-22T18:01:38;98735.78;;;12.63;79.42
13241;BME280;6687;47.790;7.322;2023-02-22T18:04:09;98732.41;;;12.53;79.57
13241;BME280;6687;47.790;7.322;2023-02-22T18:06:36;98726.28;;;12.62;78.89
13241;BME280;6687;47.790;7.322;2023-02-22T18:09:04;98728.84;;;12.63;78.63
13241;BME280;6687;47.790;7.322;2023-02-22T18:11:35;98728.03;;;12.60;78.60
13241;BME280;6687;47.790;7.322;2023-02-22T18:14:02;98731.34;;;12.74;77.95
13241;BME280;6687;47.790;7.322;2023-02-22T18:16:31;98722.91;;;12.49;78.90
13241;BME280;6687;47.790;7.322;2023-02-22T18:19:01;98725.50;;;12.52;78.95
13241;BME280;6687;47.790;7.322;2023-02-22T18:21:29;98722.00;;;12.53;78.72
13241;BME280;6687;47.790;7.322;2023-02-22T18:23:56;98723.63;;;12.63;77.98
13241;BME280;6687;47.790;7.322;2023-02-22T18:26:24;98731.41;;;12.68;77.58
13241;BME280;6687;47.790;7.322;2023-02-22T18:28:51;98730.56;;;12.64;77.76
13241;BME280;6687;47.790;7.322;2023-02-22T18:31:20;98727.13;;;12.62;78.00
13241;BME280;6687;47.790;7.322;2023-02-22T18:33:49;98723.63;;;12.66;77.45
13241;BME280;6687;47.790;7.322;2023-02-22T18:36:17;98732.31;;;12.62;77.41
13241;BME280;6687;47.790;7.322;2023-02-22T18:38:48;98724.59;;;12.54;77.86
13241;BME280;6687;47.790;7.322;2023-02-22T18:41:17;98731.47;;;12.62;77.73
13241;BME280;6687;47.790;7.322;2023-02-22T18:43:44;98718.34;;;12.72;77.15
13241;BME280;6687;47.790;7.322;2023-02-22T18:46:13;98720.25;;;12.55;78.22
13241;BME280;6687;47.790;7.322;2023-02-22T18:48:42;98722.75;;;12.66;77.74
13241;BME280;6687;47.790;7.322;2023-02-22T18:51:10;98717.44;;;12.75;76.93
13241;BME280;6687;47.790;7.322;2023-02-22T18:53:38;98716.75;;;12.61;77.35
13241;BME280;6687;47.790;7.322;2023-02-22T18:56:08;98722.00;;;12.58;77.93
13241;BME280;6687;47.790;7.322;2023-02-22T18:58:36;98718.50;;;12.59;77.50
13241;BME280;6687;47.790;7.322;2023-02-22T19:01:04;98716.66;;;12.70;76.93
13241;BME280;6687;47.790;7.322;2023-02-22T19:03:33;98719.44;;;12.51;77.73
13241;BME280;6687;47.790;7.322;2023-02-22T19:06:03;98719.31;;;12.64;77.61
13241;BME280;6687;47.790;7.322;2023-02-22T19:08:33;98715.91;;;12.59;77.96
13241;BME280;6687;47.790;7.322;2023-02-22T19:11:03;98719.25;;;12.70;77.11
13241;BME280;6687;47.790;7.322;2023-02-22T19:13:32;98712.50;;;12.50;77.79
13241;BME280;6687;47.790;7.322;2023-02-22T19:16:00;98702.84;;;12.65;77.58
13241;BME280;6687;47.790;7.322;2023-02-22T19:18:27;98704.59;;;12.61;77.18
13241;BME280;6687;47.790;7.322;2023-02-22T19:20:55;98714.22;;;12.54;77.98
13241;BME280;6687;47.790;7.322;2023-02-22T19:23:22;98712.50;;;12.50;78.44
13241;BME280;6687;47.790;7.322;2023-02-22T19:25:49;98713.28;;;12.62;77.54
13241;BME280;6687;47.790;7.322;2023-02-22T19:28:16;98716.84;;;12.51;78.03
13241;BME280;6687;47.790;7.322;2023-02-22T19:30:45;98726.34;;;12.56;77.92
13241;BME280;6687;47.790;7.322;2023-02-22T19:33:12;98716.00;;;12.49;78.23
13241;BME280;6687;47.790;7.322;2023-02-22T19:35:39;98714.97;;;12.67;77.07
13241;BME280;6687;47.790;7.322;2023-02-22T19:38:12;98721.06;;;12.62;77.37
13241;BME280;6687;47.790;7.322;2023-02-22T19:40:39;98711.47;;;12.68;77.32
13241;BME280;6687;47.790;7.322;2023-02-22T19:43:06;98718.50;;;12.59;77.52
13241;BME280;6687;47.790;7.322;2023-02-22T19:45:33;98719.38;;;12.58;77.61
13241;BME280;6687;47.790;7.322;2023-02-22T19:48:05;98718.50;;;12.60;77.42
13241;BME280;6687;47.790;7.322;2023-02-22T19:50:32;98722.91;;;12.53;77.63
13241;BME280;6687;47.790;7.322;2023-02-22T19:52:59;98724.59;;;12.58;77.59
13241;BME280;6687;47.790;7.322;2023-02-22T19:55:26;98725.44;;;12.55;77.60